Oak Grove, Oregon
Current Conditions -  °F | °C
As of 2:53 PM on Wednesday 22 Oct 2014 (Local Time) from KPDX Reporting Station
Moderate Rain Moderate Rain  
Wind Chill: 14°   Ceiling: 2500
Heat Index: 14°   Visibility: 3mi
Dew Point: 13°   Wind: 5mph
Humidity: 96%   Direction: 160°SSE
Pressure: 29.71"   Gusts: NA
Location:  45.42°N, 122.64°W
Report Text: KPDX 222153Z 16004KT 3SM RA BR FEW005 BKN025 OVC035 14/13 A2971 RMK AO2 SLP059 P0030 T01390133
Loading
Personal Weather Stations






























Interactive Weather Map
Tropical Storm Tracking
New forecast layout! Learn more

10-Day Weather Forecast

Advertisements
Track Severe Weather on mobile